Main page
METAR-TAF:

METAR-TAF

Airports :

Nawabshah Airport

Nawabshah, Pakistan

latitude: 26-15N, longitude: 068-22E, elevation: 37 m

Current weather observation

The report was made 1 hour and 14 minutes ago, at 21:00 UTC
Calm wind
Temperature 10°C
Humidity 82%
Pressure 1014 hPa
smoke

METAR: OPNH 222100Z 00000KT 2000M FU NSC 10/07 Q1014 TEMPO 1500 BR

Time: 03:14 (22:14 UTC)

Forecast

The report was made 6 hours and 14 minutes ago, at 16:00 UTC
Forecast valid from 22 at 18 UTC to 23 at 24 UTC
Wind 3 kt from variable directions
Visibility: 2000 m
mist
Temporary
from 23 at 00 UTC to 23 at 04 UTC
Wind 3 kt from variable directions
Visibility: 1000 m
mist
From UTC
Wind 8 kt from the North
Visibility: 4000 m
haze
From UTC
Wind 5 kt from the Northwest
Visibility: 2000 m
mist

TAF: OPNH 221600Z 2218/2324 VRB03KT 2000 BR NSC TEMPO 2300/2304 VRB03KT 1000 BR NSC FM 230600Z 35008KT 4000 HZ NSC FM 232100Z 32005KT 2000 BR NSC

Weather observations and forecasts of more than 4000 airports (METAR and TAF reports).

The available stations are represented by yellow and red dots on the map.

Hover mouse over dot to see the name of the station.

Then click to see weather observations and forecasts.

To change the map : click on the green buttons with a black cross to zoom in, on the green button with a dash to zoom out, or on the green arrows for adjacent maps.


METAR-TAF: